Time;durP1;ratioP1;P1;durP2;ratioP2;P2;SDS_P1;SDS_P2;PMS_P1;PMS_P2;Temp;Humidity;BMP_temperature;BMP_pressure;BME280_temperature;BME280_humidity;BME280_pressure;Samples;Min_cycle;Max_cycle;Signal;HPM_P1;HPM_P2
2024/01/27 00:02:02;;;;;;;35.28;4.45;;;;;;;;;;5049915;28;20045;-82
2024/01/27 00:04:28;;;;;;;34.83;4.07;;;;;;;;;;5047761;28;20025;-82
2024/01/27 00:06:54;;;;;;;31.30;4.00;;;;;;;;;;5029677;28;20026;-82
2024/01/27 00:09:20;;;;;;;30.85;4.35;;;;;;;;;;5030291;28;20067;-82
2024/01/27 00:11:46;;;;;;;32.78;4.10;;;;;;;;;;5029977;28;20112;-82
2024/01/27 00:14:12;;;;;;;31.67;4.40;;;;;;;;;;5029446;28;20109;-82
2024/01/27 00:16:38;;;;;;;33.30;4.00;;;;;;;;;;5048533;28;20051;-82
2024/01/27 00:19:04;;;;;;;29.85;3.92;;;;;;;;;;5051231;28;20477;-82
2024/01/27 00:21:30;;;;;;;30.38;4.35;;;;;;;;;;5032263;28;20160;-82
2024/01/27 00:24:00;;;;;;;29.65;4.05;;;;;;;;;;5029458;28;20080;-82
2024/01/27 00:26:27;;;;;;;36.15;4.20;;;;;;;;;;5045515;28;20025;-82
2024/01/27 00:28:53;;;;;;;27.23;3.72;;;;;;;;;;5049056;28;20476;-82
2024/01/27 00:31:19;;;;;;;28.20;3.83;;;;;;;;;;5050664;28;20013;-82
2024/01/27 00:33:45;;;;;;;24.50;3.53;;;;;;;;;;5050690;28;20397;-82
2024/01/27 00:36:11;;;;;;;27.75;4.28;;;;;;;;;;5035371;28;20116;-81
2024/01/27 00:38:38;;;;;;;28.83;4.47;;;;;;;;;;5029548;28;20112;-82
2024/01/27 00:41:04;;;;;;;35.58;4.80;;;;;;;;;;5041511;28;20020;-82
2024/01/27 00:43:31;;;;;;;30.70;4.13;;;;;;;;;;5049116;28;20013;-82
2024/01/27 00:45:57;;;;;;;28.42;4.35;;;;;;;;;;5050240;28;20039;-82
2024/01/27 00:48:23;;;;;;;30.77;4.47;;;;;;;;;;5050472;28;20105;-82
2024/01/27 00:50:49;;;;;;;27.88;4.78;;;;;;;;;;5038948;28;20543;-82
2024/01/27 00:53:15;;;;;;;30.83;4.85;;;;;;;;;;5031344;28;20359;-82
2024/01/27 00:55:42;;;;;;;35.78;4.63;;;;;;;;;;5038971;28;20025;-82
2024/01/27 00:58:08;;;;;;;27.98;3.65;;;;;;;;;;5047150;28;20112;-81
2024/01/27 01:00:34;;;;;;;25.48;3.80;;;;;;;;;;5028867;28;20429;-82
2024/01/27 01:03:00;;;;;;;27.83;4.00;;;;;;;;;;5028604;28;20024;-82
2024/01/27 01:05:26;;;;;;;31.17;4.28;;;;;;;;;;5034772;28;20017;-81
2024/01/27 01:07:52;;;;;;;31.35;4.72;;;;;;;;;;5048316;28;20021;-81
2024/01/27 01:10:18;;;;;;;36.17;4.60;;;;;;;;;;5046790;28;20017;-83
2024/01/27 01:12:44;;;;;;;28.13;4.40;;;;;;;;;;5028794;28;20022;-82
2024/01/27 01:15:10;;;;;;;29.17;5.18;;;;;;;;;;5030106;28;20028;-82
2024/01/27 01:17:36;;;;;;;23.23;4.85;;;;;;;;;;5048177;28;20020;-82
2024/01/27 01:20:02;;;;;;;30.75;4.25;;;;;;;;;;5049768;28;20013;-81
2024/01/27 01:22:28;;;;;;;28.15;4.70;;;;;;;;;;5048746;28;20017;-82
2024/01/27 01:24:54;;;;;;;29.00;4.97;;;;;;;;;;5049847;28;20074;-82
2024/01/27 01:27:21;;;;;;;34.75;4.50;;;;;;;;;;5030200;28;20087;-82
2024/01/27 01:29:47;;;;;;;37.60;5.07;;;;;;;;;;5028299;28;20111;-82
2024/01/27 01:32:13;;;;;;;37.17;5.68;;;;;;;;;;5046362;28;20075;-82
2024/01/27 01:34:39;;;;;;;36.85;4.50;;;;;;;;;;5049176;28;20495;-82
2024/01/27 01:37:05;;;;;;;36.53;4.82;;;;;;;;;;5033332;28;20025;-82
2024/01/27 01:39:31;;;;;;;33.75;4.78;;;;;;;;;;5028481;28;20006;-82
2024/01/27 01:41:57;;;;;;;32.35;4.90;;;;;;;;;;5028271;28;20024;-81
2024/01/27 01:44:29;;;;;;;32.13;5.25;;;;;;;;;;5027951;28;20457;-83
2024/01/27 01:46:56;;;;;;;32.85;5.22;;;;;;;;;;5040845;28;20064;-82
2024/01/27 01:49:22;;;;;;;33.47;4.68;;;;;;;;;;5048126;28;20045;-81
2024/01/27 01:51:48;;;;;;;34.53;4.68;;;;;;;;;;5038089;28;20104;-82
2024/01/27 01:54:14;;;;;;;38.47;5.10;;;;;;;;;;5029442;28;20044;-82
2024/01/27 01:56:40;;;;;;;43.63;5.13;;;;;;;;;;5037661;28;20058;-81
2024/01/27 01:59:06;;;;;;;34.50;5.18;;;;;;;;;;5049388;28;20013;-82
2024/01/27 02:01:32;;;;;;;42.53;4.68;;;;;;;;;;5047876;28;20023;-81
2024/01/27 02:03:58;;;;;;;33.58;4.38;;;;;;;;;;5047860;28;20024;-81
2024/01/27 02:06:25;;;;;;;40.47;3.97;;;;;;;;;;5042404;28;20013;-81
2024/01/27 02:08:51;;;;;;;32.55;4.70;;;;;;;;;;5027757;28;20021;-82
2024/01/27 02:11:17;;;;;;;35.33;5.30;;;;;;;;;;5032408;28;20023;-82
2024/01/27 02:13:44;;;;;;;35.38;5.18;;;;;;;;;;5047197;28;20443;-81
2024/01/27 02:16:10;;;;;;;33.25;4.60;;;;;;;;;;5049209;28;20244;-82
2024/01/27 02:18:36;;;;;;;35.15;4.57;;;;;;;;;;5047895;28;20446;-81
2024/01/27 02:21:02;;;;;;;30.45;4.38;;;;;;;;;;5047944;28;20108;-81
2024/01/27 02:23:28;;;;;;;32.42;4.80;;;;;;;;;;5028233;28;20052;-81
2024/01/27 02:25:54;;;;;;;33.55;4.60;;;;;;;;;;5029962;28;20046;-82
2024/01/27 02:28:20;;;;;;;28.13;4.82;;;;;;;;;;5046712;28;20021;-81
2024/01/27 02:30:47;;;;;;;29.40;4.93;;;;;;;;;;5047479;28;20036;-82
2024/01/27 02:33:13;;;;;;;34.88;4.53;;;;;;;;;;5031018;28;20145;-82
2024/01/27 02:35:39;;;;;;;33.47;5.43;;;;;;;;;;5028500;28;20026;-82
2024/01/27 02:38:05;;;;;;;43.15;4.60;;;;;;;;;;5043856;28;20104;-81
2024/01/27 02:40:31;;;;;;;34.83;4.55;;;;;;;;;;5047843;28;20424;-82
2024/01/27 02:42:57;;;;;;;31.30;4.63;;;;;;;;;;5034150;28;20018;-81
2024/01/27 02:45:23;;;;;;;37.60;4.60;;;;;;;;;;5027751;28;20121;-81
2024/01/27 02:47:49;;;;;;;34.65;5.22;;;;;;;;;;5039994;28;20298;-81
2024/01/27 02:50:15;;;;;;;33.25;4.50;;;;;;;;;;5048340;28;20147;-82
2024/01/27 02:52:41;;;;;;;23.33;4.03;;;;;;;;;;5036846;28;20022;-81
2024/01/27 02:55:07;;;;;;;29.83;4.70;;;;;;;;;;5027470;28;20044;-82
2024/01/27 02:57:33;;;;;;;30.45;4.32;;;;;;;;;;5035105;28;20026;-81
2024/01/27 02:59:59;;;;;;;25.75;3.97;;;;;;;;;;5047670;28;20017;-81
2024/01/27 03:02:25;;;;;;;35.42;4.63;;;;;;;;;;5040746;28;20397;-82
2024/01/27 03:04:51;;;;;;;29.30;4.53;;;;;;;;;;5027708;28;20009;-82
2024/01/27 03:07:17;;;;;;;34.70;4.10;;;;;;;;;;5032752;28;20009;-82
2024/01/27 03:09:43;;;;;;;25.88;3.53;;;;;;;;;;5047831;28;20028;-82
2024/01/27 03:12:09;;;;;;;28.17;4.47;;;;;;;;;;5048144;28;20021;-82
2024/01/27 03:14:36;;;;;;;39.15;4.75;;;;;;;;;;5046920;28;20063;-82
2024/01/27 03:17:02;;;;;;;30.73;4.00;;;;;;;;;;5045234;28;20029;-82
2024/01/27 03:19:28;;;;;;;32.00;4.32;;;;;;;;;;5027375;28;20028;-82
2024/01/27 03:21:54;;;;;;;31.38;4.50;;;;;;;;;;5028734;28;20025;-82
2024/01/27 03:24:20;;;;;;;37.58;4.25;;;;;;;;;;5028476;28;20013;-82
2024/01/27 03:26:46;;;;;;;30.27;4.28;;;;;;;;;;5032260;28;20017;-81
2024/01/27 03:29:12;;;;;;;26.00;3.85;;;;;;;;;;5050999;28;20429;-82
2024/01/27 03:31:38;;;;;;;28.77;4.43;;;;;;;;;;5052247;28;20248;-81
2024/01/27 03:34:04;;;;;;;23.75;4.03;;;;;;;;;;5035305;28;20021;-82
2024/01/27 03:36:30;;;;;;;36.42;4.30;;;;;;;;;;5031145;28;20478;-81
2024/01/27 03:38:57;;;;;;;24.40;4.20;;;;;;;;;;5044644;28;20425;-82
2024/01/27 03:41:23;;;;;;;24.80;3.92;;;;;;;;;;5050557;28;20020;-82
2024/01/27 03:43:50;;;;;;;28.48;3.50;;;;;;;;;;5039133;28;20032;-82
2024/01/27 03:46:16;;;;;;;25.20;4.57;;;;;;;;;;5031648;28;20478;-82
2024/01/27 03:48:42;;;;;;;30.58;4.50;;;;;;;;;;5042530;28;20469;-82
2024/01/27 03:51:08;;;;;;;30.83;4.30;;;;;;;;;;5050259;28;20473;-82
2024/01/27 03:53:34;;;;;;;26.30;3.85;;;;;;;;;;5040808;28;20049;-82
2024/01/27 03:56:03;;;;;;;30.20;4.35;;;;;;;;;;5030964;28;20040;-82
2024/01/27 03:58:30;;;;;;;26.08;5.10;;;;;;;;;;5040021;28;20021;-81
2024/01/27 04:00:56;;;;;;;29.75;4.70;;;;;;;;;;5050305;28;20048;-82
2024/01/27 04:03:22;;;;;;;31.48;4.28;;;;;;;;;;5050044;28;20024;-81
2024/01/27 04:05:48;;;;;;;22.95;3.80;;;;;;;;;;5050264;28;20013;-81
2024/01/27 04:08:14;;;;;;;28.17;4.28;;;;;;;;;;5046115;28;20017;-81
2024/01/27 04:10:40;;;;;;;28.67;4.30;;;;;;;;;;5030736;28;20070;-81
2024/01/27 04:13:06;;;;;;;34.33;4.85;;;;;;;;;;5033028;28;20017;-81
2024/01/27 04:15:38;;;;;;;27.67;3.90;;;;;;;;;;5050676;28;20032;-81
2024/01/27 04:18:07;;;;;;;30.92;4.78;;;;;;;;;;5047965;28;20458;-81
2024/01/27 04:20:33;;;;;;;29.42;4.20;;;;;;;;;;5029190;28;20059;-81
2024/01/27 04:22:59;;;;;;;31.10;4.75;;;;;;;;;;5032455;28;20013;-81
2024/01/27 04:25:25;;;;;;;27.42;4.32;;;;;;;;;;5049975;28;20435;-82
2024/01/27 04:27:51;;;;;;;26.58;4.68;;;;;;;;;;5050450;28;20017;-81
2024/01/27 04:30:17;;;;;;;29.55;4.82;;;;;;;;;;5030522;28;20067;-80
2024/01/27 04:32:43;;;;;;;23.92;4.47;;;;;;;;;;5048946;28;20456;-81
2024/01/27 04:35:10;;;;;;;30.02;5.28;;;;;;;;;;5035626;28;20508;-81
2024/01/27 04:37:36;;;;;;;24.17;4.32;;;;;;;;;;5049330;28;20041;-81
2024/01/27 04:40:04;;;;;;;23.17;4.57;;;;;;;;;;5048004;28;20028;-80
2024/01/27 04:42:30;;;;;;;27.15;4.00;;;;;;;;;;5047769;28;20017;-81
2024/01/27 04:44:56;;;;;;;22.55;4.03;;;;;;;;;;5048767;28;20016;-81
2024/01/27 04:47:22;;;;;;;30.05;4.95;;;;;;;;;;5048751;28;20090;-81
2024/01/27 04:49:48;;;;;;;30.80;4.30;;;;;;;;;;5044965;28;20059;-81
2024/01/27 04:52:14;;;;;;;25.17;4.40;;;;;;;;;;5045529;28;20045;-81
2024/01/27 04:54:40;;;;;;;26.90;4.60;;;;;;;;;;5046876;28;20074;-81
2024/01/27 04:57:06;;;;;;;20.10;4.15;;;;;;;;;;5048645;28;20025;-81
2024/01/27 04:59:32;;;;;;;27.05;4.38;;;;;;;;;;5044974;28;20075;-80
2024/01/27 05:01:58;;;;;;;24.70;4.05;;;;;;;;;;5049305;28;20504;-81
2024/01/27 05:04:26;;;;;;;23.38;4.20;;;;;;;;;;5047574;28;20021;-81
2024/01/27 05:06:52;;;;;;;23.27;3.90;;;;;;;;;;5047770;28;20079;-81
2024/01/27 05:09:18;;;;;;;20.42;3.97;;;;;;;;;;5043151;28;20032;-81
2024/01/27 05:11:45;;;;;;;29.00;4.60;;;;;;;;;;5049776;28;20025;-81
2024/01/27 05:14:11;;;;;;;30.90;5.00;;;;;;;;;;5044828;28;20151;-81
2024/01/27 05:16:37;;;;;;;26.80;4.18;;;;;;;;;;5048857;28;20033;-81
2024/01/27 05:19:03;;;;;;;25.35;4.07;;;;;;;;;;5043867;28;20033;-81
2024/01/27 05:21:29;;;;;;;23.73;4.07;;;;;;;;;;5028727;28;20018;-80
2024/01/27 05:23:55;;;;;;;22.05;4.32;;;;;;;;;;5029388;28;20018;-81
2024/01/27 05:26:22;;;;;;;28.10;4.15;;;;;;;;;;5029231;28;20100;-83
2024/01/27 05:28:48;;;;;;;29.13;4.72;;;;;;;;;;5032037;28;20146;-82
2024/01/27 05:31:15;;;;;;;31.00;4.97;;;;;;;;;;5050848;28;20079;-83
2024/01/27 05:33:41;;;;;;;28.38;4.82;;;;;;;;;;5047550;28;20116;-82
2024/01/27 05:36:07;;;;;;;27.83;6.05;;;;;;;;;;5029557;28;20105;-81
2024/01/27 05:38:33;;;;;;;19.75;3.92;;;;;;;;;;5029318;28;20039;-81
2024/01/27 05:41:02;;;;;;;23.73;4.63;;;;;;;;;;5048112;28;20024;-84
2024/01/27 05:43:28;;;;;;;40.58;5.80;;;;;;;;;;5029030;28;20045;-82
2024/01/27 05:45:55;;;;;;;31.95;5.38;;;;;;;;;;5037440;28;20013;-81
2024/01/27 05:48:21;;;;;;;27.08;5.53;;;;;;;;;;5048921;28;20020;-82
2024/01/27 05:50:57;;;;;;;32.20;5.93;;;;;;;;;;5045272;28;20535;-81
2024/01/27 05:53:23;;;;;;;30.33;5.65;;;;;;;;;;5029124;28;20079;-82
2024/01/27 05:55:49;;;;;;;32.40;6.72;;;;;;;;;;5045343;28;20029;-82
2024/01/27 05:58:15;;;;;;;28.10;7.15;;;;;;;;;;5048485;28;20088;-82
2024/01/27 06:00:43;;;;;;;31.63;6.53;;;;;;;;;;5041802;28;20021;-82
2024/01/27 06:03:10;;;;;;;25.13;4.85;;;;;;;;;;5047490;28;20060;-82
2024/01/27 06:05:36;;;;;;;28.40;5.22;;;;;;;;;;5047801;28;20554;-82
2024/01/27 06:08:02;;;;;;;34.20;5.07;;;;;;;;;;5049965;28;20035;-82
2024/01/27 06:10:28;;;;;;;24.02;4.85;;;;;;;;;;5042785;28;20029;-83
2024/01/27 06:12:54;;;;;;;27.85;5.20;;;;;;;;;;5047257;28;20021;-82
2024/01/27 06:15:20;;;;;;;31.88;5.75;;;;;;;;;;5048267;28;20028;-82
2024/01/27 06:17:46;;;;;;;22.02;4.90;;;;;;;;;;5048278;28;20013;-82
2024/01/27 06:20:12;;;;;;;27.30;5.63;;;;;;;;;;5047363;28;20024;-82
2024/01/27 06:22:38;;;;;;;33.65;6.15;;;;;;;;;;5048087;28;20473;-82
2024/01/27 06:25:05;;;;;;;32.70;5.68;;;;;;;;;;5044568;28;20014;-82
2024/01/27 06:27:31;;;;;;;25.73;4.72;;;;;;;;;;5048215;28;20024;-82
2024/01/27 06:29:57;;;;;;;29.70;5.57;;;;;;;;;;5047117;28;20051;-82
2024/01/27 06:32:23;;;;;;;35.22;5.32;;;;;;;;;;5048916;28;20053;-83
2024/01/27 06:34:49;;;;;;;27.02;5.00;;;;;;;;;;5047902;28;20020;-82
2024/01/27 06:37:15;;;;;;;29.38;5.13;;;;;;;;;;5047125;28;20059;-82
2024/01/27 06:39:42;;;;;;;29.88;4.68;;;;;;;;;;5049044;28;20541;-81
2024/01/27 06:42:08;;;;;;;27.58;5.03;;;;;;;;;;5048383;28;20412;-82
2024/01/27 06:44:34;;;;;;;23.10;4.50;;;;;;;;;;5049090;28;20071;-82
2024/01/27 06:47:00;;;;;;;30.77;5.60;;;;;;;;;;5049438;28;20025;-82
2024/01/27 06:49:26;;;;;;;34.47;6.00;;;;;;;;;;5048027;28;20040;-82
2024/01/27 06:51:52;;;;;;;26.85;5.22;;;;;;;;;;5046415;28;20017;-82
2024/01/27 06:54:18;;;;;;;28.77;4.90;;;;;;;;;;5047237;28;20040;-82
2024/01/27 06:56:44;;;;;;;26.63;5.22;;;;;;;;;;5044974;28;20048;-83
2024/01/27 06:59:10;;;;;;;28.65;5.53;;;;;;;;;;5048026;28;20055;-82
2024/01/27 07:01:36;;;;;;;26.02;5.15;;;;;;;;;;5050292;28;20074;-82
2024/01/27 07:04:02;;;;;;;29.70;5.35;;;;;;;;;;5051360;28;20746;-83
2024/01/27 07:06:28;;;;;;;27.42;5.53;;;;;;;;;;5051885;28;20047;-83
2024/01/27 07:08:54;;;;;;;35.75;5.90;;;;;;;;;;5051629;28;20020;-83
2024/01/27 07:11:20;;;;;;;22.50;5.32;;;;;;;;;;5051326;28;20021;-83
2024/01/27 07:13:46;;;;;;;30.42;5.47;;;;;;;;;;5051648;28;20025;-83
2024/01/27 07:16:12;;;;;;;28.48;5.57;;;;;;;;;;5049765;28;20021;-83
2024/01/27 07:18:38;;;;;;;32.58;5.07;;;;;;;;;;5052903;28;20327;-84
2024/01/27 07:21:04;;;;;;;27.48;5.45;;;;;;;;;;5053208;28;20047;-82
2024/01/27 07:23:30;;;;;;;38.05;5.25;;;;;;;;;;5053001;28;20377;-83
2024/01/27 07:26:02;;;;;;;27.52;6.07;;;;;;;;;;5046331;28;20168;-83
2024/01/27 07:28:28;;;;;;;31.30;6.35;;;;;;;;;;5032663;28;20079;-83
2024/01/27 07:30:54;;;;;;;31.10;6.45;;;;;;;;;;5037578;28;20078;-83
2024/01/27 07:33:20;;;;;;;28.88;5.88;;;;;;;;;;5051735;28;20056;-83
2024/01/27 07:35:46;;;;;;;32.10;5.65;;;;;;;;;;5046302;28;20034;-83
2024/01/27 07:38:12;;;;;;;25.77;5.03;;;;;;;;;;5031443;28;20394;-83
2024/01/27 07:40:38;;;;;;;25.38;5.30;;;;;;;;;;5034051;28;20017;-79
2024/01/27 07:43:04;;;;;;;41.67;6.30;;;;;;;;;;5049667;28;20393;-78
2024/01/27 07:45:30;;;;;;;26.10;7.20;;;;;;;;;;5048549;28;20021;-79
2024/01/27 07:47:56;;;;;;;33.45;6.85;;;;;;;;;;5030118;28;20095;-78
2024/01/27 07:50:23;;;;;;;34.45;6.50;;;;;;;;;;5029558;28;20425;-76
2024/01/27 07:52:49;;;;;;;33.67;6.05;;;;;;;;;;5047054;28;20028;-76
2024/01/27 07:55:17;;;;;;;35.28;6.43;;;;;;;;;;5051068;28;20033;-77
2024/01/27 07:57:43;;;;;;;102.63;14.75;;;;;;;;;;5033520;28;20075;-76
2024/01/27 08:00:09;;;;;;;37.85;6.20;;;;;;;;;;5043464;28;20033;-75
2024/01/27 08:02:35;;;;;;;31.77;5.85;;;;;;;;;;5047501;28;20021;-76
2024/01/27 08:05:01;;;;;;;32.35;6.35;;;;;;;;;;5049161;28;20036;-76
2024/01/27 08:07:27;;;;;;;31.00;7.38;;;;;;;;;;5044207;28;20017;-76
2024/01/27 08:09:53;;;;;;;30.35;6.78;;;;;;;;;;5048624;28;20028;-78
2024/01/27 08:12:19;;;;;;;30.95;6.45;;;;;;;;;;5044733;28;20025;-76
2024/01/27 08:14:45;;;;;;;32.85;6.55;;;;;;;;;;5050284;28;20033;-77
2024/01/27 08:17:11;;;;;;;29.42;6.03;;;;;;;;;;5043753;28;20124;-76
2024/01/27 08:19:37;;;;;;;37.97;6.80;;;;;;;;;;5049514;28;20017;-76
2024/01/27 08:22:03;;;;;;;29.20;7.40;;;;;;;;;;5048424;28;20044;-76
2024/01/27 08:24:29;;;;;;;30.33;7.78;;;;;;;;;;5047983;28;20021;-76
2024/01/27 08:26:55;;;;;;;34.75;8.43;;;;;;;;;;5042330;28;20026;-76
2024/01/27 08:29:21;;;;;;;35.10;8.05;;;;;;;;;;5032257;28;20050;-76
2024/01/27 08:31:47;;;;;;;40.20;7.95;;;;;;;;;;5045485;28;20090;-76
2024/01/27 08:34:14;;;;;;;35.40;7.90;;;;;;;;;;5048844;28;20048;-76
2024/01/27 08:36:40;;;;;;;32.53;7.70;;;;;;;;;;5045349;28;20091;-76
2024/01/27 08:39:09;;;;;;;30.58;7.07;;;;;;;;;;5029255;28;20009;-77
2024/01/27 08:41:35;;;;;;;30.90;7.30;;;;;;;;;;5027637;28;20301;-76
2024/01/27 08:44:01;;;;;;;33.67;6.95;;;;;;;;;;5029293;28;20032;-76
2024/01/27 08:46:27;;;;;;;30.45;6.82;;;;;;;;;;5030372;28;20052;-76
2024/01/27 08:48:53;;;;;;;32.70;7.38;;;;;;;;;;5049639;28;20075;-76
2024/01/27 08:51:19;;;;;;;30.17;5.47;;;;;;;;;;5049883;28;20025;-76
2024/01/27 08:53:48;;;;;;;27.63;5.60;;;;;;;;;;5028182;28;20017;-76
2024/01/27 08:56:15;;;;;;;22.73;5.50;;;;;;;;;;5029143;28;20027;-76
2024/01/27 08:58:42;;;;;;;23.67;5.00;;;;;;;;;;5044444;28;20098;-76
2024/01/27 09:01:09;;;;;;;23.00;4.55;;;;;;;;;;5049392;28;20028;-76
2024/01/27 09:03:35;;;;;;;21.15;4.53;;;;;;;;;;5033413;28;20260;-77
2024/01/27 09:06:01;;;;;;;22.35;4.32;;;;;;;;;;5029341;28;20024;-76
2024/01/27 09:08:27;;;;;;;30.95;4.97;;;;;;;;;;5042453;28;20021;-77
2024/01/27 09:10:53;;;;;;;20.90;4.20;;;;;;;;;;5048732;28;20029;-77
2024/01/27 09:13:19;;;;;;;25.92;4.93;;;;;;;;;;5035934;28;20037;-77
2024/01/27 09:15:45;;;;;;;23.98;4.13;;;;;;;;;;5026953;28;20117;-76
2024/01/27 09:18:11;;;;;;;21.73;4.45;;;;;;;;;;5039488;28;20021;-76
2024/01/27 09:20:37;;;;;;;21.70;4.22;;;;;;;;;;5047564;28;20016;-76
2024/01/27 09:23:03;;;;;;;18.55;3.75;;;;;;;;;;5039088;28;20389;-77
2024/01/27 09:25:31;;;;;;;22.63;4.13;;;;;;;;;;5029411;28;20230;-77
2024/01/27 09:28:00;;;;;;;28.17;4.32;;;;;;;;;;5036953;28;20066;-76
2024/01/27 09:30:26;;;;;;;26.50;3.80;;;;;;;;;;5048027;28;20208;-76
2024/01/27 09:32:52;;;;;;;19.55;4.43;;;;;;;;;;5040461;28;20009;-76
2024/01/27 09:35:18;;;;;;;25.35;4.43;;;;;;;;;;5028447;28;20021;-76
2024/01/27 09:37:46;;;;;;;22.45;4.63;;;;;;;;;;5032766;28;20051;-76
2024/01/27 09:40:12;;;;;;;25.30;3.75;;;;;;;;;;5046986;28;20021;-77
2024/01/27 09:42:39;;;;;;;23.13;4.47;;;;;;;;;;5045315;28;20021;-76
2024/01/27 09:45:06;;;;;;;21.17;4.55;;;;;;;;;;5047463;28;20083;-77
2024/01/27 09:47:34;;;;;;;25.25;4.97;;;;;;;;;;5046582;28;20138;-77
2024/01/27 09:50:00;;;;;;;26.20;5.32;;;;;;;;;;5046168;28;20021;-77
2024/01/27 09:52:26;;;;;;;26.08;5.13;;;;;;;;;;5047885;28;20059;-77
2024/01/27 09:54:52;;;;;;;25.83;4.75;;;;;;;;;;5031209;28;20060;-78
2024/01/27 09:57:20;;;;;;;22.40;5.63;;;;;;;;;;5047482;28;20029;-78
2024/01/27 09:59:46;;;;;;;24.85;5.25;;;;;;;;;;5028534;28;20021;-78
2024/01/27 10:02:14;;;;;;;23.98;5.45;;;;;;;;;;5046913;28;20084;-78
2024/01/27 10:04:44;;;;;;;26.08;5.22;;;;;;;;;;5046825;28;20371;-79
2024/01/27 10:07:10;;;;;;;;;;;;;;;;;;5047091;28;20412;-78
2024/01/27 10:09:36;;;;;;;31.17;6.20;;;;;;;;;;5030394;28;20221;-78
2024/01/27 10:12:03;;;;;;;28.75;5.63;;;;;;;;;;5032853;28;20021;-78
2024/01/27 10:14:39;;;;;;;28.42;6.05;;;;;;;;;;5046372;28;20023;-78
2024/01/27 10:17:05;;;;;;;31.38;6.35;;;;;;;;;;5044560;28;20607;-78
2024/01/27 10:19:31;;;;;;;22.80;5.63;;;;;;;;;;5034491;28;20033;-78
2024/01/27 10:22:04;;;;;;;26.20;6.00;;;;;;;;;;5027425;28;20032;-78
2024/01/27 10:24:35;;;;;;;32.00;5.75;;;;;;;;;;5028061;28;20087;-78
2024/01/27 10:27:04;;;;;;;33.13;6.30;;;;;;;;;;5026675;28;20029;-78
2024/01/27 10:29:31;;;;;;;31.27;5.40;;;;;;;;;;5039874;28;20402;-78
2024/01/27 10:32:08;;;;;;;29.50;4.55;;;;;;;;;;5047781;28;20100;-78
2024/01/27 10:34:34;;;;;;;27.70;4.70;;;;;;;;;;5049123;28;20132;-78
2024/01/27 10:37:00;;;;;;;26.58;5.03;;;;;;;;;;5050728;28;20023;-78
2024/01/27 10:39:26;;;;;;;22.92;4.63;;;;;;;;;;5040612;28;20022;-78
2024/01/27 10:41:52;;;;;;;27.38;4.82;;;;;;;;;;5030401;28;20057;-78
2024/01/27 10:44:19;;;;;;;25.83;5.00;;;;;;;;;;5042548;28;20024;-78
2024/01/27 10:46:46;;;;;;;30.15;5.32;;;;;;;;;;5049077;28;20124;-78
2024/01/27 10:49:16;;;;;;;28.98;4.75;;;;;;;;;;5050139;28;20029;-78
2024/01/27 10:51:55;;;;;;;25.08;4.32;;;;;;;;;;5050253;28;20048;-78
2024/01/27 10:54:28;;;;;;;29.27;5.10;;;;;;;;;;5044763;28;20028;-78
2024/01/27 10:56:56;;;;;;;26.00;5.47;;;;;;;;;;5030837;28;20390;-78
2024/01/27 10:59:22;;;;;;;24.05;4.80;;;;;;;;;;5037316;28;20083;-78
2024/01/27 11:01:53;;;;;;;23.25;4.82;;;;;;;;;;5050868;28;20048;-78
2024/01/27 11:04:19;;;;;;;;;;;;;;;;;;5048837;28;20090;-78
2024/01/27 11:06:45;;;;;;;24.30;5.65;;;;;;;;;;5050384;28;20281;-78
2024/01/27 11:09:12;;;;;;;23.88;5.05;;;;;;;;;;5050988;28;20500;-78
2024/01/27 11:11:39;;;;;;;28.45;4.65;;;;;;;;;;5050605;28;20346;-78
2024/01/27 11:14:05;;;;;;;25.75;4.60;;;;;;;;;;5051074;28;20056;-78
2024/01/27 11:16:31;;;;;;;26.05;4.95;;;;;;;;;;5048811;28;20031;-78
2024/01/27 11:18:57;;;;;;;25.63;4.45;;;;;;;;;;5047091;28;20036;-78
2024/01/27 11:21:23;;;;;;;25.00;5.05;;;;;;;;;;5050100;28;20021;-78
2024/01/27 11:23:49;;;;;;;28.52;4.97;;;;;;;;;;5050708;28;20540;-78
2024/01/27 11:26:21;;;;;;;19.02;4.68;;;;;;;;;;5046357;28;20033;-78
2024/01/27 11:28:47;;;;;;;25.42;5.00;;;;;;;;;;5049437;28;20471;-76
2024/01/27 11:31:13;;;;;;;28.30;5.53;;;;;;;;;;5032515;28;20028;-77
2024/01/27 11:33:46;;;;;;;23.17;4.93;;;;;;;;;;5031181;28;20402;-77
2024/01/27 11:36:20;;;;;;;26.30;5.90;;;;;;;;;;5045615;28;20040;-77
2024/01/27 11:38:46;;;;;;;30.40;6.30;;;;;;;;;;5050827;28;20013;-78
2024/01/27 11:41:12;;;;;;;20.35;4.82;;;;;;;;;;5033910;28;20030;-78
2024/01/27 11:43:38;;;;;;;28.13;5.07;;;;;;;;;;5029906;28;20087;-77
2024/01/27 11:46:04;;;;;;;27.85;5.30;;;;;;;;;;5041847;28;20401;-77
2024/01/27 11:48:31;;;;;;;25.52;5.22;;;;;;;;;;5039760;28;20025;-77
2024/01/27 11:51:03;;;;;;;21.33;4.63;;;;;;;;;;5039914;28;20036;-77
2024/01/27 11:53:29;;;;;;;20.70;4.70;;;;;;;;;;5038222;28;20025;-77
2024/01/27 11:55:59;;;;;;;28.98;4.88;;;;;;;;;;5040008;28;20030;-77
2024/01/27 11:58:25;;;;;;;29.17;5.35;;;;;;;;;;5042528;28;20485;-77
2024/01/27 12:00:51;;;;;;;25.17;4.80;;;;;;;;;;5040726;28;20036;-78
2024/01/27 12:03:17;;;;;;;24.75;4.93;;;;;;;;;;5039886;28;20070;-78
2024/01/27 12:05:43;;;;;;;31.38;5.15;;;;;;;;;;5038560;28;20021;-79
2024/01/27 12:08:09;;;;;;;27.38;5.50;;;;;;;;;;5039066;28;20169;-78
2024/01/27 12:10:35;;;;;;;19.95;4.47;;;;;;;;;;5041293;28;20511;-78
2024/01/27 12:13:02;;;;;;;28.33;5.00;;;;;;;;;;5037122;28;20059;-79
2024/01/27 12:15:28;;;;;;;28.50;4.68;;;;;;;;;;5038435;28;20021;-78
2024/01/27 12:17:54;;;;;;;26.55;4.90;;;;;;;;;;5041888;28;20021;-78
2024/01/27 12:20:22;;;;;;;27.02;4.85;;;;;;;;;;5037168;28;20025;-78
2024/01/27 12:22:54;;;;;;;19.40;3.97;;;;;;;;;;5037176;28;20249;-78
2024/01/27 12:25:22;;;;;;;21.27;3.97;;;;;;;;;;5038764;28;20260;-78
2024/01/27 12:27:48;;;;;;;18.17;4.03;;;;;;;;;;5042055;28;20053;-78
2024/01/27 12:30:14;;;;;;;24.83;3.63;;;;;;;;;;5039584;28;20069;-78
2024/01/27 12:32:40;;;;;;;18.45;2.95;;;;;;;;;;5038229;28;20017;-78
2024/01/27 12:35:07;;;;;;;18.20;3.50;;;;;;;;;;5040572;28;20024;-78
2024/01/27 12:37:33;;;;;;;22.25;3.40;;;;;;;;;;5041015;28;20024;-78
2024/01/27 12:39:59;;;;;;;27.88;3.35;;;;;;;;;;5039971;28;20064;-78
2024/01/27 12:42:25;;;;;;;21.70;3.40;;;;;;;;;;5039201;28;20068;-79
2024/01/27 12:44:51;;;;;;;22.33;3.65;;;;;;;;;;5040179;28;20018;-79
2024/01/27 12:47:19;;;;;;;19.77;3.15;;;;;;;;;;5039834;28;20025;-78
2024/01/27 12:49:45;;;;;;;21.65;3.20;;;;;;;;;;5038948;28;20022;-78
2024/01/27 12:52:12;;;;;;;21.20;3.22;;;;;;;;;;5040028;28;20292;-78
2024/01/27 12:54:38;;;;;;;23.00;3.40;;;;;;;;;;5038940;28;20026;-78
2024/01/27 12:57:07;;;;;;;15.40;2.85;;;;;;;;;;5038588;28;20036;-78
2024/01/27 12:59:33;;;;;;;17.67;3.08;;;;;;;;;;5042639;28;20009;-79
2024/01/27 13:01:59;;;;;;;23.55;4.30;;;;;;;;;;5041979;28;20021;-79
2024/01/27 13:04:25;;;;;;;16.90;2.65;;;;;;;;;;5041931;28;20025;-79
2024/01/27 13:06:51;;;;;;;19.60;2.65;;;;;;;;;;5039807;28;20500;-80
2024/01/27 13:09:17;;;;;;;21.52;3.22;;;;;;;;;;5037590;28;20017;-79
2024/01/27 13:11:44;;;;;;;22.35;3.78;;;;;;;;;;5045796;28;20035;-80
2024/01/27 13:14:12;;;;;;;16.92;2.83;;;;;;;;;;5040159;28;20638;-80
2024/01/27 13:16:38;;;;;;;16.05;3.38;;;;;;;;;;5039011;28;20740;-79
2024/01/27 13:19:05;;;;;;;22.23;3.40;;;;;;;;;;5041743;28;20021;-79
2024/01/27 13:21:31;;;;;;;24.95;3.97;;;;;;;;;;5041735;28;20025;-79
2024/01/27 13:23:57;;;;;;;19.50;3.90;;;;;;;;;;5040553;28;20036;-80
2024/01/27 13:26:23;;;;;;;18.70;3.47;;;;;;;;;;5042699;28;20028;-82
2024/01/27 13:28:49;;;;;;;17.35;3.38;;;;;;;;;;5034208;28;20524;-83
2024/01/27 13:31:15;;;;;;;13.23;2.50;;;;;;;;;;5045004;28;20481;-83
2024/01/27 13:33:41;;;;;;;17.92;3.67;;;;;;;;;;5050121;28;20028;-83
2024/01/27 13:36:07;;;;;;;20.90;4.30;;;;;;;;;;5036433;28;20036;-83
2024/01/27 13:38:35;;;;;;;22.02;4.05;;;;;;;;;;5044305;28;20017;-83
2024/01/27 13:41:01;;;;;;;17.77;3.47;;;;;;;;;;5038261;28;20070;-83
2024/01/27 13:43:27;;;;;;;14.23;2.90;;;;;;;;;;5047774;28;20017;-83
2024/01/27 13:45:54;;;;;;;17.73;3.30;;;;;;;;;;5042774;28;20252;-82
2024/01/27 13:48:20;;;;;;;10.60;2.85;;;;;;;;;;5046686;28;20033;-82
2024/01/27 13:50:46;;;;;;;18.00;3.50;;;;;;;;;;5047555;28;20483;-82
2024/01/27 13:53:12;;;;;;;16.58;3.67;;;;;;;;;;5047241;28;20108;-82
2024/01/27 13:55:40;;;;;;;11.70;2.50;;;;;;;;;;5049303;28;20035;-82
2024/01/27 13:58:06;;;;;;;23.15;3.42;;;;;;;;;;5045352;28;20017;-82
2024/01/27 14:00:34;;;;;;;20.23;3.17;;;;;;;;;;5048263;28;20052;-82
2024/01/27 14:03:00;;;;;;;19.17;3.10;;;;;;;;;;5047379;28;20381;-82
2024/01/27 14:05:26;;;;;;;25.60;3.80;;;;;;;;;;5048681;28;20465;-82
2024/01/27 14:07:52;;;;;;;22.20;3.17;;;;;;;;;;5049904;28;20074;-82
2024/01/27 14:10:18;;;;;;;16.10;3.35;;;;;;;;;;5048700;28;20036;-83
2024/01/27 14:12:44;;;;;;;14.18;2.72;;;;;;;;;;5035293;28;20033;-82
2024/01/27 14:15:10;;;;;;;15.23;3.10;;;;;;;;;;5028732;28;20061;-82
2024/01/27 14:17:37;;;;;;;14.73;3.05;;;;;;;;;;5040069;28;20116;-83
2024/01/27 14:20:03;;;;;;;17.23;3.08;;;;;;;;;;5048249;28;20226;-82
2024/01/27 14:22:29;;;;;;;18.92;3.05;;;;;;;;;;5038419;28;20029;-82
2024/01/27 14:24:56;;;;;;;18.52;2.60;;;;;;;;;;5027850;28;20013;-82
2024/01/27 14:27:25;;;;;;;19.20;2.63;;;;;;;;;;5037408;28;20083;-82